sensor_id;sensor_type;location;lat;lon;timestamp;P1;durP1;ratioP1;P2;durP2;ratioP2
4448;SDS011;2237;51.870;6.160;2023-03-23T00:02:02;4.85;;;2.13;;
4448;SDS011;2237;51.870;6.160;2023-03-23T00:04:27;4.30;;;1.90;;
4448;SDS011;2237;51.870;6.160;2023-03-23T00:06:54;2.28;;;1.25;;
4448;SDS011;2237;51.870;6.160;2023-03-23T00:09:19;3.20;;;1.67;;
4448;SDS011;2237;51.870;6.160;2023-03-23T00:11:50;6.00;;;1.80;;
4448;SDS011;2237;51.870;6.160;2023-03-23T00:14:16;4.45;;;1.58;;
4448;SDS011;2237;51.870;6.160;2023-03-23T00:16:41;3.72;;;1.80;;
4448;SDS011;2237;51.870;6.160;2023-03-23T00:19:09;4.75;;;1.80;;
4448;SDS011;2237;51.870;6.160;2023-03-23T00:21:38;4.13;;;1.67;;
4448;SDS011;2237;51.870;6.160;2023-03-23T00:24:16;2.70;;;1.45;;
4448;SDS011;2237;51.870;6.160;2023-03-23T00:26:46;4.38;;;1.85;;
4448;SDS011;2237;51.870;6.160;2023-03-23T00:29:17;7.03;;;2.03;;
4448;SDS011;2237;51.870;6.160;2023-03-23T00:31:46;5.75;;;2.00;;
4448;SDS011;2237;51.870;6.160;2023-03-23T00:34:17;2.50;;;1.38;;
4448;SDS011;2237;51.870;6.160;2023-03-23T00:36:54;3.80;;;1.70;;
4448;SDS011;2237;51.870;6.160;2023-03-23T00:39:21;1.92;;;0.93;;
4448;SDS011;2237;51.870;6.160;2023-03-23T00:41:49;4.20;;;1.70;;
4448;SDS011;2237;51.870;6.160;2023-03-23T00:44:15;2.50;;;1.40;;
4448;SDS011;2237;51.870;6.160;2023-03-23T00:46:51;4.43;;;1.55;;
4448;SDS011;2237;51.870;6.160;2023-03-23T00:49:18;6.13;;;2.45;;
4448;SDS011;2237;51.870;6.160;2023-03-23T00:51:44;3.38;;;1.40;;
4448;SDS011;2237;51.870;6.160;2023-03-23T00:54:10;2.58;;;1.30;;
4448;SDS011;2237;51.870;6.160;2023-03-23T00:56:36;4.47;;;1.60;;
4448;SDS011;2237;51.870;6.160;2023-03-23T00:59:02;6.72;;;1.25;;
4448;SDS011;2237;51.870;6.160;2023-03-23T01:01:28;4.72;;;1.80;;
4448;SDS011;2237;51.870;6.160;2023-03-23T01:03:53;2.60;;;1.45;;
4448;SDS011;2237;51.870;6.160;2023-03-23T01:06:26;3.33;;;1.60;;
4448;SDS011;2237;51.870;6.160;2023-03-23T01:08:52;3.75;;;1.83;;
4448;SDS011;2237;51.870;6.160;2023-03-23T01:11:19;3.70;;;1.42;;
4448;SDS011;2237;51.870;6.160;2023-03-23T01:13:45;2.63;;;1.73;;
4448;SDS011;2237;51.870;6.160;2023-03-23T01:16:12;5.10;;;2.10;;
4448;SDS011;2237;51.870;6.160;2023-03-23T01:18:38;3.97;;;1.67;;
4448;SDS011;2237;51.870;6.160;2023-03-23T01:21:08;5.22;;;1.67;;
4448;SDS011;2237;51.870;6.160;2023-03-23T01:23:35;3.47;;;1.60;;
4448;SDS011;2237;51.870;6.160;2023-03-23T01:26:36;2.95;;;1.80;;
4448;SDS011;2237;51.870;6.160;2023-03-23T01:28:54;4.15;;;1.70;;
4448;SDS011;2237;51.870;6.160;2023-03-23T01:31:21;3.78;;;1.80;;
4448;SDS011;2237;51.870;6.160;2023-03-23T01:33:49;2.83;;;1.77;;
4448;SDS011;2237;51.870;6.160;2023-03-23T01:36:20;3.28;;;1.98;;
4448;SDS011;2237;51.870;6.160;2023-03-23T01:38:53;5.18;;;2.00;;
4448;SDS011;2237;51.870;6.160;2023-03-23T01:41:20;4.03;;;2.10;;
4448;SDS011;2237;51.870;6.160;2023-03-23T01:46:27;7.03;;;2.30;;
4448;SDS011;2237;51.870;6.160;2023-03-23T01:48:55;4.53;;;2.05;;
4448;SDS011;2237;51.870;6.160;2023-03-23T01:51:23;5.10;;;2.35;;
4448;SDS011;2237;51.870;6.160;2023-03-23T01:53:55;6.47;;;2.30;;
4448;SDS011;2237;51.870;6.160;2023-03-23T01:56:24;4.38;;;2.03;;
4448;SDS011;2237;51.870;6.160;2023-03-23T01:58:55;4.47;;;2.30;;
4448;SDS011;2237;51.870;6.160;2023-03-23T02:01:21;7.00;;;2.38;;
4448;SDS011;2237;51.870;6.160;2023-03-23T02:03:50;4.05;;;2.00;;
4448;SDS011;2237;51.870;6.160;2023-03-23T02:06:17;4.22;;;2.00;;
4448;SDS011;2237;51.870;6.160;2023-03-23T02:08:43;6.28;;;2.40;;
4448;SDS011;2237;51.870;6.160;2023-03-23T02:11:16;4.43;;;2.33;;
4448;SDS011;2237;51.870;6.160;2023-03-23T02:13:43;5.00;;;2.17;;
4448;SDS011;2237;51.870;6.160;2023-03-23T02:18:57;5.25;;;2.20;;
4448;SDS011;2237;51.870;6.160;2023-03-23T02:27:45;4.30;;;2.17;;
4448;SDS011;2237;51.870;6.160;2023-03-23T02:30:37;3.47;;;1.75;;
4448;SDS011;2237;51.870;6.160;2023-03-23T02:33:31;7.13;;;2.20;;
4448;SDS011;2237;51.870;6.160;2023-03-23T02:36:05;2.75;;;1.55;;
4448;SDS011;2237;51.870;6.160;2023-03-23T02:38:35;4.00;;;1.98;;
4448;SDS011;2237;51.870;6.160;2023-03-23T02:41:17;5.35;;;2.03;;
4448;SDS011;2237;51.870;6.160;2023-03-23T02:43:46;3.60;;;2.08;;
4448;SDS011;2237;51.870;6.160;2023-03-23T02:46:13;3.95;;;2.05;;
4448;SDS011;2237;51.870;6.160;2023-03-23T02:48:40;4.38;;;2.05;;
4448;SDS011;2237;51.870;6.160;2023-03-23T02:51:09;2.83;;;1.52;;
4448;SDS011;2237;51.870;6.160;2023-03-23T02:53:37;3.60;;;1.70;;
4448;SDS011;2237;51.870;6.160;2023-03-23T02:56:06;3.17;;;2.47;;
4448;SDS011;2237;51.870;6.160;2023-03-23T02:58:34;2.83;;;1.77;;
4448;SDS011;2237;51.870;6.160;2023-03-23T03:01:10;6.15;;;2.33;;
4448;SDS011;2237;51.870;6.160;2023-03-23T03:04:10;4.07;;;1.50;;
4448;SDS011;2237;51.870;6.160;2023-03-23T03:06:47;6.13;;;1.55;;
4448;SDS011;2237;51.870;6.160;2023-03-23T03:11:50;7.60;;;1.67;;
4448;SDS011;2237;51.870;6.160;2023-03-23T03:14:19;3.83;;;1.73;;
4448;SDS011;2237;51.870;6.160;2023-03-23T03:16:53;3.53;;;1.77;;
4448;SDS011;2237;51.870;6.160;2023-03-23T03:19:27;4.28;;;1.55;;
4448;SDS011;2237;51.870;6.160;2023-03-23T03:21:57;3.15;;;1.58;;
4448;SDS011;2237;51.870;6.160;2023-03-23T03:24:24;3.65;;;1.50;;
4448;SDS011;2237;51.870;6.160;2023-03-23T03:26:53;3.10;;;1.73;;
4448;SDS011;2237;51.870;6.160;2023-03-23T03:29:29;4.18;;;1.67;;
4448;SDS011;2237;51.870;6.160;2023-03-23T03:32:03;3.15;;;1.48;;
4448;SDS011;2237;51.870;6.160;2023-03-23T03:34:32;4.75;;;1.70;;
4448;SDS011;2237;51.870;6.160;2023-03-23T03:36:58;2.75;;;1.42;;
4448;SDS011;2237;51.870;6.160;2023-03-23T03:39:25;3.95;;;2.05;;
4448;SDS011;2237;51.870;6.160;2023-03-23T03:41:51;2.92;;;1.88;;
4448;SDS011;2237;51.870;6.160;2023-03-23T03:44:16;3.90;;;2.30;;
4448;SDS011;2237;51.870;6.160;2023-03-23T03:46:42;3.63;;;1.98;;
4448;SDS011;2237;51.870;6.160;2023-03-23T03:49:08;4.47;;;1.88;;
4448;SDS011;2237;51.870;6.160;2023-03-23T03:51:37;4.10;;;1.95;;
4448;SDS011;2237;51.870;6.160;2023-03-23T03:54:04;3.83;;;1.50;;
4448;SDS011;2237;51.870;6.160;2023-03-23T03:56:30;5.22;;;1.85;;
4448;SDS011;2237;51.870;6.160;2023-03-23T03:58:56;3.90;;;1.67;;
4448;SDS011;2237;51.870;6.160;2023-03-23T04:01:22;2.80;;;1.45;;
4448;SDS011;2237;51.870;6.160;2023-03-23T04:03:48;2.58;;;1.52;;
4448;SDS011;2237;51.870;6.160;2023-03-23T04:06:14;3.40;;;1.75;;
4448;SDS011;2237;51.870;6.160;2023-03-23T04:08:40;2.97;;;1.60;;
4448;SDS011;2237;51.870;6.160;2023-03-23T04:11:10;3.58;;;1.92;;
4448;SDS011;2237;51.870;6.160;2023-03-23T04:13:37;3.55;;;1.95;;
4448;SDS011;2237;51.870;6.160;2023-03-23T04:16:03;2.90;;;1.90;;
4448;SDS011;2237;51.870;6.160;2023-03-23T04:18:30;2.80;;;1.92;;
4448;SDS011;2237;51.870;6.160;2023-03-23T04:20:57;5.00;;;1.83;;
4448;SDS011;2237;51.870;6.160;2023-03-23T04:23:24;9.07;;;2.13;;
4448;SDS011;2237;51.870;6.160;2023-03-23T04:25:51;5.88;;;2.13;;
4448;SDS011;2237;51.870;6.160;2023-03-23T04:28:21;6.20;;;2.50;;
4448;SDS011;2237;51.870;6.160;2023-03-23T04:30:49;5.13;;;2.28;;
4448;SDS011;2237;51.870;6.160;2023-03-23T04:33:18;4.20;;;1.95;;
4448;SDS011;2237;51.870;6.160;2023-03-23T04:35:44;7.75;;;2.08;;
4448;SDS011;2237;51.870;6.160;2023-03-23T04:38:10;6.10;;;2.25;;
4448;SDS011;2237;51.870;6.160;2023-03-23T04:40:38;4.28;;;1.58;;
4448;SDS011;2237;51.870;6.160;2023-03-23T04:43:05;4.22;;;1.63;;
4448;SDS011;2237;51.870;6.160;2023-03-23T04:45:34;5.35;;;2.20;;
4448;SDS011;2237;51.870;6.160;2023-03-23T04:48:03;3.10;;;1.85;;
4448;SDS011;2237;51.870;6.160;2023-03-23T04:50:30;5.95;;;1.85;;
4448;SDS011;2237;51.870;6.160;2023-03-23T04:52:58;5.13;;;1.73;;
4448;SDS011;2237;51.870;6.160;2023-03-23T04:55:24;5.15;;;1.63;;
4448;SDS011;2237;51.870;6.160;2023-03-23T04:57:50;2.75;;;1.73;;
4448;SDS011;2237;51.870;6.160;2023-03-23T05:00:16;3.35;;;1.15;;
4448;SDS011;2237;51.870;6.160;2023-03-23T05:02:43;5.38;;;1.63;;
4448;SDS011;2237;51.870;6.160;2023-03-23T05:05:11;2.28;;;1.10;;
4448;SDS011;2237;51.870;6.160;2023-03-23T05:07:38;1.92;;;1.00;;
4448;SDS011;2237;51.870;6.160;2023-03-23T05:10:04;4.68;;;1.60;;
4448;SDS011;2237;51.870;6.160;2023-03-23T05:12:31;2.55;;;1.08;;
4448;SDS011;2237;51.870;6.160;2023-03-23T05:14:56;6.32;;;0.95;;
4448;SDS011;2237;51.870;6.160;2023-03-23T05:17:22;2.97;;;1.00;;
4448;SDS011;2237;51.870;6.160;2023-03-23T05:19:52;5.00;;;1.38;;
4448;SDS011;2237;51.870;6.160;2023-03-23T05:22:18;3.20;;;1.05;;
4448;SDS011;2237;51.870;6.160;2023-03-23T05:24:46;2.90;;;0.98;;
4448;SDS011;2237;51.870;6.160;2023-03-23T05:27:12;3.17;;;0.88;;
4448;SDS011;2237;51.870;6.160;2023-03-23T05:29:40;5.65;;;1.42;;
4448;SDS011;2237;51.870;6.160;2023-03-23T05:32:08;4.18;;;0.93;;
4448;SDS011;2237;51.870;6.160;2023-03-23T05:34:34;6.15;;;1.00;;
4448;SDS011;2237;51.870;6.160;2023-03-23T05:37:03;2.25;;;0.80;;
4448;SDS011;2237;51.870;6.160;2023-03-23T05:39:30;4.20;;;0.85;;
4448;SDS011;2237;51.870;6.160;2023-03-23T05:41:56;8.40;;;1.50;;
4448;SDS011;2237;51.870;6.160;2023-03-23T05:44:22;3.67;;;1.02;;
4448;SDS011;2237;51.870;6.160;2023-03-23T05:46:47;4.22;;;0.75;;
4448;SDS011;2237;51.870;6.160;2023-03-23T05:49:13;7.30;;;1.45;;
4448;SDS011;2237;51.870;6.160;2023-03-23T05:51:41;6.40;;;1.33;;
4448;SDS011;2237;51.870;6.160;2023-03-23T05:54:07;6.25;;;0.98;;
4448;SDS011;2237;51.870;6.160;2023-03-23T05:56:33;4.68;;;1.05;;
4448;SDS011;2237;51.870;6.160;2023-03-23T05:58:59;4.72;;;1.15;;
4448;SDS011;2237;51.870;6.160;2023-03-23T06:01:25;3.70;;;0.55;;
4448;SDS011;2237;51.870;6.160;2023-03-23T06:03:51;7.88;;;1.02;;
4448;SDS011;2237;51.870;6.160;2023-03-23T06:06:19;7.65;;;1.02;;
4448;SDS011;2237;51.870;6.160;2023-03-23T06:08:45;6.75;;;0.95;;
4448;SDS011;2237;51.870;6.160;2023-03-23T06:11:11;13.07;;;0.75;;
4448;SDS011;2237;51.870;6.160;2023-03-23T06:13:36;4.72;;;1.00;;
4448;SDS011;2237;51.870;6.160;2023-03-23T06:16:02;5.80;;;1.30;;
4448;SDS011;2237;51.870;6.160;2023-03-23T06:18:29;5.28;;;0.70;;
4448;SDS011;2237;51.870;6.160;2023-03-23T06:20:58;7.80;;;1.02;;
4448;SDS011;2237;51.870;6.160;2023-03-23T06:23:24;2.72;;;1.10;;
4448;SDS011;2237;51.870;6.160;2023-03-23T06:25:49;4.85;;;0.80;;
4448;SDS011;2237;51.870;6.160;2023-03-23T06:28:19;6.05;;;1.65;;
4448;SDS011;2237;51.870;6.160;2023-03-23T06:30:44;5.32;;;1.40;;
4448;SDS011;2237;51.870;6.160;2023-03-23T06:33:10;6.43;;;1.05;;
4448;SDS011;2237;51.870;6.160;2023-03-23T06:35:36;5.50;;;1.17;;
4448;SDS011;2237;51.870;6.160;2023-03-23T06:38:01;4.03;;;0.80;;
4448;SDS011;2237;51.870;6.160;2023-03-23T06:40:27;7.25;;;1.20;;
4448;SDS011;2237;51.870;6.160;2023-03-23T06:42:54;8.45;;;1.58;;
4448;SDS011;2237;51.870;6.160;2023-03-23T06:45:22;3.97;;;1.10;;
4448;SDS011;2237;51.870;6.160;2023-03-23T06:47:47;6.13;;;1.48;;
4448;SDS011;2237;51.870;6.160;2023-03-23T06:50:16;2.15;;;0.95;;
4448;SDS011;2237;51.870;6.160;2023-03-23T06:52:45;1.30;;;0.70;;
4448;SDS011;2237;51.870;6.160;2023-03-23T06:55:12;4.78;;;1.55;;
4448;SDS011;2237;51.870;6.160;2023-03-23T06:57:38;3.28;;;1.02;;
4448;SDS011;2237;51.870;6.160;2023-03-23T07:00:04;5.85;;;1.42;;
4448;SDS011;2237;51.870;6.160;2023-03-23T07:02:42;5.50;;;1.15;;
4448;SDS011;2237;51.870;6.160;2023-03-23T07:05:09;5.22;;;1.00;;
4448;SDS011;2237;51.870;6.160;2023-03-23T07:07:39;7.22;;;1.27;;
4448;SDS011;2237;51.870;6.160;2023-03-23T07:10:07;4.93;;;1.33;;
4448;SDS011;2237;51.870;6.160;2023-03-23T07:12:34;7.47;;;1.50;;
4448;SDS011;2237;51.870;6.160;2023-03-23T07:15:01;6.38;;;1.17;;
4448;SDS011;2237;51.870;6.160;2023-03-23T07:17:27;2.78;;;0.60;;
4448;SDS011;2237;51.870;6.160;2023-03-23T07:19:53;2.85;;;1.10;;
4448;SDS011;2237;51.870;6.160;2023-03-23T07:22:19;5.05;;;1.25;;
4448;SDS011;2237;51.870;6.160;2023-03-23T07:24:44;11.07;;;2.03;;
4448;SDS011;2237;51.870;6.160;2023-03-23T07:27:10;4.75;;;0.98;;
4448;SDS011;2237;51.870;6.160;2023-03-23T07:29:35;4.22;;;1.30;;
4448;SDS011;2237;51.870;6.160;2023-03-23T07:32:03;6.13;;;1.33;;
4448;SDS011;2237;51.870;6.160;2023-03-23T07:34:29;4.25;;;1.42;;
4448;SDS011;2237;51.870;6.160;2023-03-23T07:36:55;6.10;;;1.40;;
4448;SDS011;2237;51.870;6.160;2023-03-23T07:39:21;9.85;;;0.70;;
4448;SDS011;2237;51.870;6.160;2023-03-23T07:41:48;5.15;;;0.50;;
4448;SDS011;2237;51.870;6.160;2023-03-23T07:44:13;3.03;;;1.13;;
4448;SDS011;2237;51.870;6.160;2023-03-23T07:46:39;3.42;;;0.82;;
4448;SDS011;2237;51.870;6.160;2023-03-23T07:49:05;7.68;;;1.50;;
4448;SDS011;2237;51.870;6.160;2023-03-23T07:51:30;2.58;;;1.08;;
4448;SDS011;2237;51.870;6.160;2023-03-23T07:53:56;6.75;;;1.40;;
4448;SDS011;2237;51.870;6.160;2023-03-23T07:56:22;5.70;;;1.85;;
4448;SDS011;2237;51.870;6.160;2023-03-23T07:58:48;6.72;;;1.88;;
4448;SDS011;2237;51.870;6.160;2023-03-23T08:01:14;8.50;;;2.17;;
4448;SDS011;2237;51.870;6.160;2023-03-23T08:03:40;9.30;;;1.63;;
4448;SDS011;2237;51.870;6.160;2023-03-23T08:06:05;7.95;;;1.50;;
4448;SDS011;2237;51.870;6.160;2023-03-23T08:08:31;8.55;;;1.55;;
4448;SDS011;2237;51.870;6.160;2023-03-23T08:10:58;4.93;;;1.35;;
4448;SDS011;2237;51.870;6.160;2023-03-23T08:13:24;4.55;;;0.95;;
4448;SDS011;2237;51.870;6.160;2023-03-23T08:15:49;23.15;;;2.65;;
4448;SDS011;2237;51.870;6.160;2023-03-23T08:18:16;12.75;;;1.17;;
4448;SDS011;2237;51.870;6.160;2023-03-23T08:20:42;4.55;;;1.02;;
4448;SDS011;2237;51.870;6.160;2023-03-23T08:23:08;5.43;;;1.20;;
4448;SDS011;2237;51.870;6.160;2023-03-23T08:25:33;4.07;;;1.00;;
4448;SDS011;2237;51.870;6.160;2023-03-23T08:27:59;5.78;;;1.27;;
4448;SDS011;2237;51.870;6.160;2023-03-23T08:30:26;6.35;;;1.25;;
4448;SDS011;2237;51.870;6.160;2023-03-23T08:32:54;5.35;;;1.58;;
4448;SDS011;2237;51.870;6.160;2023-03-23T08:35:20;5.75;;;0.80;;
4448;SDS011;2237;51.870;6.160;2023-03-23T08:37:45;2.70;;;0.75;;
4448;SDS011;2237;51.870;6.160;2023-03-23T08:40:12;2.13;;;0.47;;
4448;SDS011;2237;51.870;6.160;2023-03-23T08:42:39;4.03;;;0.90;;
4448;SDS011;2237;51.870;6.160;2023-03-23T08:45:08;1.25;;;0.52;;
4448;SDS011;2237;51.870;6.160;2023-03-23T08:47:35;1.58;;;0.40;;
4448;SDS011;2237;51.870;6.160;2023-03-23T08:50:02;1.73;;;0.52;;
4448;SDS011;2237;51.870;6.160;2023-03-23T08:52:28;1.50;;;0.50;;
4448;SDS011;2237;51.870;6.160;2023-03-23T08:54:54;1.48;;;0.43;;
4448;SDS011;2237;51.870;6.160;2023-03-23T08:57:20;1.30;;;0.30;;
4448;SDS011;2237;51.870;6.160;2023-03-23T08:59:45;1.05;;;0.20;;
4448;SDS011;2237;51.870;6.160;2023-03-23T09:02:11;1.67;;;0.43;;
4448;SDS011;2237;51.870;6.160;2023-03-23T09:04:37;2.17;;;0.35;;
4448;SDS011;2237;51.870;6.160;2023-03-23T09:07:04;1.63;;;0.40;;
4448;SDS011;2237;51.870;6.160;2023-03-23T09:09:29;1.70;;;0.20;;
4448;SDS011;2237;51.870;6.160;2023-03-23T09:11:54;1.77;;;0.63;;
4448;SDS011;2237;51.870;6.160;2023-03-23T09:14:20;1.17;;;0.30;;
4448;SDS011;2237;51.870;6.160;2023-03-23T09:16:47;0.90;;;0.45;;
4448;SDS011;2237;51.870;6.160;2023-03-23T09:19:12;1.65;;;0.40;;
4448;SDS011;2237;51.870;6.160;2023-03-23T09:21:38;1.90;;;0.40;;
4448;SDS011;2237;51.870;6.160;2023-03-23T09:24:03;2.67;;;1.00;;
4448;SDS011;2237;51.870;6.160;2023-03-23T09:26:30;1.20;;;0.32;;
4448;SDS011;2237;51.870;6.160;2023-03-23T09:28:56;2.00;;;0.35;;
4448;SDS011;2237;51.870;6.160;2023-03-23T09:31:21;0.55;;;0.22;;
4448;SDS011;2237;51.870;6.160;2023-03-23T09:33:48;3.08;;;0.57;;
4448;SDS011;2237;51.870;6.160;2023-03-23T09:36:17;4.53;;;0.82;;
4448;SDS011;2237;51.870;6.160;2023-03-23T09:38:46;0.63;;;0.22;;
4448;SDS011;2237;51.870;6.160;2023-03-23T09:43:53;2.25;;;0.40;;
4448;SDS011;2237;51.870;6.160;2023-03-23T09:49:03;0.77;;;0.45;;
4448;SDS011;2237;51.870;6.160;2023-03-23T09:57:01;3.88;;;0.38;;
4448;SDS011;2237;51.870;6.160;2023-03-23T09:59:33;2.90;;;0.60;;
4448;SDS011;2237;51.870;6.160;2023-03-23T10:02:27;4.82;;;0.70;;
4448;SDS011;2237;51.870;6.160;2023-03-23T10:04:56;3.75;;;0.60;;
4448;SDS011;2237;51.870;6.160;2023-03-23T10:07:37;3.40;;;0.57;;
4448;SDS011;2237;51.870;6.160;2023-03-23T10:10:03;3.80;;;0.75;;
4448;SDS011;2237;51.870;6.160;2023-03-23T10:12:38;7.22;;;0.60;;
4448;SDS011;2237;51.870;6.160;2023-03-23T10:17:49;2.33;;;0.40;;
4448;SDS011;2237;51.870;6.160;2023-03-23T10:20:21;4.47;;;1.10;;
4448;SDS011;2237;51.870;6.160;2023-03-23T10:22:58;3.33;;;0.75;;
4448;SDS011;2237;51.870;6.160;2023-03-23T10:25:39;2.95;;;0.65;;
4448;SDS011;2237;51.870;6.160;2023-03-23T10:28:12;3.50;;;0.98;;
4448;SDS011;2237;51.870;6.160;2023-03-23T10:30:48;4.35;;;0.90;;
4448;SDS011;2237;51.870;6.160;2023-03-23T10:33:38;6.00;;;0.68;;
4448;SDS011;2237;51.870;6.160;2023-03-23T10:36:18;7.57;;;1.20;;
4448;SDS011;2237;51.870;6.160;2023-03-23T10:38:48;2.00;;;0.70;;
4448;SDS011;2237;51.870;6.160;2023-03-23T10:41:18;3.35;;;0.45;;
4448;SDS011;2237;51.870;6.160;2023-03-23T10:43:45;3.20;;;0.90;;
4448;SDS011;2237;51.870;6.160;2023-03-23T10:49:14;3.90;;;0.70;;
4448;SDS011;2237;51.870;6.160;2023-03-23T10:51:45;33.55;;;4.45;;
4448;SDS011;2237;51.870;6.160;2023-03-23T10:54:35;2.55;;;0.40;;
4448;SDS011;2237;51.870;6.160;2023-03-23T10:57:59;2.17;;;0.50;;
4448;SDS011;2237;51.870;6.160;2023-03-23T10:59:57;3.60;;;0.40;;
4448;SDS011;2237;51.870;6.160;2023-03-23T11:02:31;3.05;;;0.80;;
4448;SDS011;2237;51.870;6.160;2023-03-23T11:05:02;3.85;;;1.27;;
4448;SDS011;2237;51.870;6.160;2023-03-23T11:07:31;3.38;;;0.65;;
4448;SDS011;2237;51.870;6.160;2023-03-23T11:10:35;5.68;;;0.60;;
4448;SDS011;2237;51.870;6.160;2023-03-23T11:12:57;3.42;;;0.60;;
4448;SDS011;2237;51.870;6.160;2023-03-23T11:15:28;1.70;;;0.47;;
4448;SDS011;2237;51.870;6.160;2023-03-23T11:18:02;10.15;;;1.45;;
4448;SDS011;2237;51.870;6.160;2023-03-23T11:20:34;2.92;;;0.60;;
4448;SDS011;2237;51.870;6.160;2023-03-23T11:23:07;6.60;;;1.17;;
4448;SDS011;2237;51.870;6.160;2023-03-23T11:25:49;4.20;;;0.77;;
4448;SDS011;2237;51.870;6.160;2023-03-23T11:28:28;3.03;;;0.80;;
4448;SDS011;2237;51.870;6.160;2023-03-23T11:30:57;5.63;;;1.17;;
4448;SDS011;2237;51.870;6.160;2023-03-23T11:33:28;6.25;;;0.93;;
4448;SDS011;2237;51.870;6.160;2023-03-23T11:35:55;3.33;;;0.90;;
4448;SDS011;2237;51.870;6.160;2023-03-23T11:38:22;3.28;;;0.68;;
4448;SDS011;2237;51.870;6.160;2023-03-23T11:40:53;12.00;;;2.10;;
4448;SDS011;2237;51.870;6.160;2023-03-23T11:43:20;37.65;;;3.72;;
4448;SDS011;2237;51.870;6.160;2023-03-23T11:48:55;8.57;;;1.90;;
4448;SDS011;2237;51.870;6.160;2023-03-23T11:54:20;5.10;;;0.80;;
4448;SDS011;2237;51.870;6.160;2023-03-23T11:56:54;1.95;;;0.90;;
4448;SDS011;2237;51.870;6.160;2023-03-23T11:59:28;2.85;;;0.55;;
4448;SDS011;2237;51.870;6.160;2023-03-23T12:07:21;4.97;;;1.25;;
4448;SDS011;2237;51.870;6.160;2023-03-23T12:26:26;4.63;;;1.15;;
4448;SDS011;2237;51.870;6.160;2023-03-23T12:29:08;1.65;;;0.70;;
4448;SDS011;2237;51.870;6.160;2023-03-23T12:40:39;3.08;;;0.70;;
4448;SDS011;2237;51.870;6.160;2023-03-23T12:48:12;3.40;;;0.60;;
4448;SDS011;2237;51.870;6.160;2023-03-23T12:53:30;2.70;;;0.50;;
4448;SDS011;2237;51.870;6.160;2023-03-23T12:56:06;1.60;;;0.65;;
4448;SDS011;2237;51.870;6.160;2023-03-23T12:58:45;2.13;;;0.57;;
4448;SDS011;2237;51.870;6.160;2023-03-23T13:01:14;9.55;;;1.98;;
4448;SDS011;2237;51.870;6.160;2023-03-23T13:04:05;3.05;;;0.60;;
4448;SDS011;2237;51.870;6.160;2023-03-23T13:06:44;1.92;;;0.40;;
4448;SDS011;2237;51.870;6.160;2023-03-23T13:09:23;3.58;;;0.68;;
4448;SDS011;2237;51.870;6.160;2023-03-23T13:11:54;3.70;;;0.80;;
4448;SDS011;2237;51.870;6.160;2023-03-23T13:25:37;6.93;;;0.57;;
4448;SDS011;2237;51.870;6.160;2023-03-23T13:28:14;3.10;;;0.70;;
4448;SDS011;2237;51.870;6.160;2023-03-23T13:31:11;2.35;;;0.35;;
4448;SDS011;2237;51.870;6.160;2023-03-23T13:33:36;4.45;;;0.80;;
4448;SDS011;2237;51.870;6.160;2023-03-23T13:36:10;4.38;;;0.65;;
4448;SDS011;2237;51.870;6.160;2023-03-23T13:38:39;3.65;;;0.88;;
4448;SDS011;2237;51.870;6.160;2023-03-23T13:41:13;3.15;;;0.65;;
4448;SDS011;2237;51.870;6.160;2023-03-23T13:43:41;8.55;;;0.70;;
4448;SDS011;2237;51.870;6.160;2023-03-23T13:48:51;4.65;;;0.90;;
4448;SDS011;2237;51.870;6.160;2023-03-23T13:56:42;3.80;;;0.88;;
4448;SDS011;2237;51.870;6.160;2023-03-23T13:59:15;4.07;;;0.93;;
4448;SDS011;2237;51.870;6.160;2023-03-23T14:01:42;6.50;;;0.90;;
4448;SDS011;2237;51.870;6.160;2023-03-23T14:04:15;3.30;;;0.85;;
4448;SDS011;2237;51.870;6.160;2023-03-23T14:06:43;3.47;;;0.55;;
4448;SDS011;2237;51.870;6.160;2023-03-23T14:09:18;4.60;;;0.75;;
4448;SDS011;2237;51.870;6.160;2023-03-23T14:11:55;1.95;;;0.85;;
4448;SDS011;2237;51.870;6.160;2023-03-23T14:14:25;5.38;;;1.40;;
4448;SDS011;2237;51.870;6.160;2023-03-23T14:17:04;2.67;;;1.00;;
4448;SDS011;2237;51.870;6.160;2023-03-23T14:19:40;5.05;;;1.02;;
4448;SDS011;2237;51.870;6.160;2023-03-23T14:22:17;3.97;;;0.77;;
4448;SDS011;2237;51.870;6.160;2023-03-23T14:24:44;5.82;;;0.90;;
4448;SDS011;2237;51.870;6.160;2023-03-23T14:27:20;4.82;;;0.98;;
4448;SDS011;2237;51.870;6.160;2023-03-23T14:30:00;7.78;;;1.00;;
4448;SDS011;2237;51.870;6.160;2023-03-23T14:32:27;2.08;;;0.77;;
4448;SDS011;2237;51.870;6.160;2023-03-23T14:34:56;1.80;;;0.52;;
4448;SDS011;2237;51.870;6.160;2023-03-23T14:37:22;3.90;;;0.98;;
4448;SDS011;2237;51.870;6.160;2023-03-23T14:39:49;6.32;;;1.60;;
4448;SDS011;2237;51.870;6.160;2023-03-23T14:42:17;6.00;;;1.33;;
4448;SDS011;2237;51.870;6.160;2023-03-23T14:44:49;6.57;;;2.38;;
4448;SDS011;2237;51.870;6.160;2023-03-23T14:47:18;13.35;;;2.72;;
4448;SDS011;2237;51.870;6.160;2023-03-23T14:49:57;5.70;;;1.92;;
4448;SDS011;2237;51.870;6.160;2023-03-23T14:52:26;5.07;;;0.90;;
4448;SDS011;2237;51.870;6.160;2023-03-23T14:54:53;2.25;;;0.85;;
4448;SDS011;2237;51.870;6.160;2023-03-23T14:57:25;6.13;;;1.42;;
4448;SDS011;2237;51.870;6.160;2023-03-23T14:59:54;4.22;;;1.00;;
4448;SDS011;2237;51.870;6.160;2023-03-23T15:02:28;2.35;;;0.80;;
4448;SDS011;2237;51.870;6.160;2023-03-23T15:05:02;3.00;;;1.00;;
4448;SDS011;2237;51.870;6.160;2023-03-23T15:07:33;4.15;;;1.42;;
4448;SDS011;2237;51.870;6.160;2023-03-23T15:10:00;7.00;;;1.30;;
4448;SDS011;2237;51.870;6.160;2023-03-23T15:12:30;3.08;;;1.00;;
4448;SDS011;2237;51.870;6.160;2023-03-23T15:15:00;3.95;;;1.40;;
4448;SDS011;2237;51.870;6.160;2023-03-23T15:17:28;2.60;;;1.00;;
4448;SDS011;2237;51.870;6.160;2023-03-23T15:19:56;4.85;;;2.15;;
4448;SDS011;2237;51.870;6.160;2023-03-23T15:22:24;3.55;;;1.30;;
4448;SDS011;2237;51.870;6.160;2023-03-23T15:24:52;4.13;;;1.70;;
4448;SDS011;2237;51.870;6.160;2023-03-23T15:29:56;2.23;;;0.80;;
4448;SDS011;2237;51.870;6.160;2023-03-23T15:32:23;5.13;;;1.00;;
4448;SDS011;2237;51.870;6.160;2023-03-23T15:34:54;2.85;;;1.10;;
4448;SDS011;2237;51.870;6.160;2023-03-23T15:37:25;3.33;;;1.00;;
4448;SDS011;2237;51.870;6.160;2023-03-23T15:39:56;1.73;;;0.73;;
4448;SDS011;2237;51.870;6.160;2023-03-23T15:42:33;5.43;;;1.92;;
4448;SDS011;2237;51.870;6.160;2023-03-23T15:50:17;4.35;;;1.25;;
4448;SDS011;2237;51.870;6.160;2023-03-23T15:52:45;3.10;;;1.00;;
4448;SDS011;2237;51.870;6.160;2023-03-23T15:57:49;1.83;;;0.95;;
4448;SDS011;2237;51.870;6.160;2023-03-23T16:00:15;2.78;;;0.88;;
4448;SDS011;2237;51.870;6.160;2023-03-23T16:02:44;3.30;;;1.00;;
4448;SDS011;2237;51.870;6.160;2023-03-23T16:05:12;5.60;;;1.40;;
4448;SDS011;2237;51.870;6.160;2023-03-23T16:07:39;3.83;;;1.05;;
4448;SDS011;2237;51.870;6.160;2023-03-23T16:10:06;4.32;;;0.93;;
4448;SDS011;2237;51.870;6.160;2023-03-23T16:12:39;6.78;;;1.33;;
4448;SDS011;2237;51.870;6.160;2023-03-23T16:15:06;4.45;;;1.30;;
4448;SDS011;2237;51.870;6.160;2023-03-23T16:17:34;5.60;;;1.30;;
4448;SDS011;2237;51.870;6.160;2023-03-23T16:20:00;6.60;;;1.20;;
4448;SDS011;2237;51.870;6.160;2023-03-23T16:22:29;5.20;;;1.52;;
4448;SDS011;2237;51.870;6.160;2023-03-23T16:24:55;7.20;;;1.48;;
4448;SDS011;2237;51.870;6.160;2023-03-23T16:27:21;5.35;;;1.23;;
4448;SDS011;2237;51.870;6.160;2023-03-23T16:29:48;4.68;;;1.40;;
4448;SDS011;2237;51.870;6.160;2023-03-23T16:32:29;4.60;;;1.75;;
4448;SDS011;2237;51.870;6.160;2023-03-23T16:34:55;4.68;;;1.42;;
4448;SDS011;2237;51.870;6.160;2023-03-23T16:37:22;4.15;;;1.50;;
4448;SDS011;2237;51.870;6.160;2023-03-23T16:39:48;5.85;;;1.42;;
4448;SDS011;2237;51.870;6.160;2023-03-23T16:42:14;5.63;;;1.13;;
4448;SDS011;2237;51.870;6.160;2023-03-23T16:44:41;4.35;;;1.45;;
4448;SDS011;2237;51.870;6.160;2023-03-23T16:47:07;5.47;;;1.38;;
4448;SDS011;2237;51.870;6.160;2023-03-23T16:49:33;5.22;;;1.33;;
4448;SDS011;2237;51.870;6.160;2023-03-23T16:52:00;4.32;;;1.42;;
4448;SDS011;2237;51.870;6.160;2023-03-23T16:54:26;4.75;;;1.67;;
4448;SDS011;2237;51.870;6.160;2023-03-23T16:56:52;5.00;;;1.70;;
4448;SDS011;2237;51.870;6.160;2023-03-23T16:59:19;4.07;;;1.50;;
4448;SDS011;2237;51.870;6.160;2023-03-23T17:01:45;8.38;;;1.63;;
4448;SDS011;2237;51.870;6.160;2023-03-23T17:04:12;7.90;;;1.80;;
4448;SDS011;2237;51.870;6.160;2023-03-23T17:06:38;6.18;;;1.70;;
4448;SDS011;2237;51.870;6.160;2023-03-23T17:09:04;9.65;;;1.95;;
4448;SDS011;2237;51.870;6.160;2023-03-23T17:11:32;8.43;;;1.48;;
4448;SDS011;2237;51.870;6.160;2023-03-23T17:13:58;6.80;;;1.70;;